sensor_id;sensor_type;location;lat;lon;timestamp;temperature;humidity
20370;DHT22;10344;47.592;9.600;2024-01-06T00:00:41;5.70;99.90
20370;DHT22;10344;47.592;9.600;2024-01-06T00:03:09;5.60;99.90
20370;DHT22;10344;47.592;9.600;2024-01-06T00:05:35;5.60;99.90
20370;DHT22;10344;47.592;9.600;2024-01-06T00:08:00;5.60;99.90
20370;DHT22;10344;47.592;9.600;2024-01-06T00:10:27;5.60;99.90
20370;DHT22;10344;47.592;9.600;2024-01-06T00:12:53;5.60;99.90
20370;DHT22;10344;47.592;9.600;2024-01-06T00:15:21;5.60;99.90
20370;DHT22;10344;47.592;9.600;2024-01-06T00:17:46;5.50;99.90
20370;DHT22;10344;47.592;9.600;2024-01-06T00:20:12;5.50;99.90
20370;DHT22;10344;47.592;9.600;2024-01-06T00:22:38;5.50;99.90
20370;DHT22;10344;47.592;9.600;2024-01-06T00:25:07;5.50;99.90
20370;DHT22;10344;47.592;9.600;2024-01-06T00:27:32;5.50;99.90
20370;DHT22;10344;47.592;9.600;2024-01-06T00:29:58;5.50;99.90
20370;DHT22;10344;47.592;9.600;2024-01-06T00:32:24;5.50;99.90
20370;DHT22;10344;47.592;9.600;2024-01-06T00:34:49;5.50;99.90
20370;DHT22;10344;47.592;9.600;2024-01-06T00:37:15;5.40;99.90
20370;DHT22;10344;47.592;9.600;2024-01-06T00:39:40;5.40;99.90
20370;DHT22;10344;47.592;9.600;2024-01-06T00:42:06;5.40;99.90
20370;DHT22;10344;47.592;9.600;2024-01-06T00:44:33;5.40;99.90
20370;DHT22;10344;47.592;9.600;2024-01-06T00:46:59;5.40;99.90
20370;DHT22;10344;47.592;9.600;2024-01-06T00:49:24;5.40;99.90
20370;DHT22;10344;47.592;9.600;2024-01-06T00:51:55;5.50;99.90
20370;DHT22;10344;47.592;9.600;2024-01-06T00:54:20;5.40;99.90
20370;DHT22;10344;47.592;9.600;2024-01-06T00:56:48;5.40;99.90
20370;DHT22;10344;47.592;9.600;2024-01-06T00:59:14;5.40;99.90
20370;DHT22;10344;47.592;9.600;2024-01-06T01:01:39;5.40;99.90
20370;DHT22;10344;47.592;9.600;2024-01-06T01:04:07;5.50;99.90
20370;DHT22;10344;47.592;9.600;2024-01-06T01:06:36;5.50;99.90
20370;DHT22;10344;47.592;9.600;2024-01-06T01:09:02;5.50;99.90
20370;DHT22;10344;47.592;9.600;2024-01-06T01:11:28;5.60;99.90
20370;DHT22;10344;47.592;9.600;2024-01-06T01:13:53;5.60;99.90
20370;DHT22;10344;47.592;9.600;2024-01-06T01:16:22;5.60;99.90
20370;DHT22;10344;47.592;9.600;2024-01-06T01:18:47;5.60;99.90
20370;DHT22;10344;47.592;9.600;2024-01-06T01:21:14;5.50;99.90
20370;DHT22;10344;47.592;9.600;2024-01-06T01:23:42;5.60;99.90
20370;DHT22;10344;47.592;9.600;2024-01-06T01:26:08;5.60;99.90
20370;DHT22;10344;47.592;9.600;2024-01-06T01:28:36;5.60;99.90
20370;DHT22;10344;47.592;9.600;2024-01-06T01:31:02;5.50;99.90
20370;DHT22;10344;47.592;9.600;2024-01-06T01:33:27;5.50;99.90
20370;DHT22;10344;47.592;9.600;2024-01-06T01:35:55;5.50;99.90
20370;DHT22;10344;47.592;9.600;2024-01-06T01:38:21;5.40;99.90
20370;DHT22;10344;47.592;9.600;2024-01-06T01:40:46;5.40;99.90
20370;DHT22;10344;47.592;9.600;2024-01-06T01:43:21;5.30;99.90
20370;DHT22;10344;47.592;9.600;2024-01-06T01:45:54;5.30;99.90
20370;DHT22;10344;47.592;9.600;2024-01-06T01:48:20;5.30;99.90
20370;DHT22;10344;47.592;9.600;2024-01-06T01:50:47;5.20;99.90
20370;DHT22;10344;47.592;9.600;2024-01-06T01:53:17;5.20;99.90
20370;DHT22;10344;47.592;9.600;2024-01-06T01:55:46;5.30;99.90
20370;DHT22;10344;47.592;9.600;2024-01-06T01:58:12;5.30;99.90
20370;DHT22;10344;47.592;9.600;2024-01-06T02:00:39;5.30;99.90
20370;DHT22;10344;47.592;9.600;2024-01-06T02:03:05;5.40;99.90
20370;DHT22;10344;47.592;9.600;2024-01-06T02:05:31;5.40;99.90
20370;DHT22;10344;47.592;9.600;2024-01-06T02:08:06;5.40;99.90
20370;DHT22;10344;47.592;9.600;2024-01-06T02:10:31;5.40;99.90
20370;DHT22;10344;47.592;9.600;2024-01-06T02:12:57;5.40;99.90
20370;DHT22;10344;47.592;9.600;2024-01-06T02:15:23;5.50;99.90
20370;DHT22;10344;47.592;9.600;2024-01-06T02:17:51;5.50;99.90
20370;DHT22;10344;47.592;9.600;2024-01-06T02:20:17;5.50;99.90
20370;DHT22;10344;47.592;9.600;2024-01-06T02:22:48;5.50;99.90
20370;DHT22;10344;47.592;9.600;2024-01-06T02:25:14;5.50;99.90
20370;DHT22;10344;47.592;9.600;2024-01-06T02:27:42;5.50;99.90
20370;DHT22;10344;47.592;9.600;2024-01-06T02:30:09;5.60;99.90
20370;DHT22;10344;47.592;9.600;2024-01-06T02:32:38;5.50;99.90
20370;DHT22;10344;47.592;9.600;2024-01-06T02:35:03;5.50;99.90
20370;DHT22;10344;47.592;9.600;2024-01-06T02:37:29;5.50;99.90
20370;DHT22;10344;47.592;9.600;2024-01-06T02:39:57;5.40;99.90
20370;DHT22;10344;47.592;9.600;2024-01-06T02:42:23;5.50;99.90
20370;DHT22;10344;47.592;9.600;2024-01-06T02:44:51;5.50;99.90
20370;DHT22;10344;47.592;9.600;2024-01-06T02:47:16;5.40;99.90
20370;DHT22;10344;47.592;9.600;2024-01-06T02:49:42;5.50;99.90
20370;DHT22;10344;47.592;9.600;2024-01-06T02:52:08;5.40;99.90
20370;DHT22;10344;47.592;9.600;2024-01-06T02:54:33;5.40;99.90
20370;DHT22;10344;47.592;9.600;2024-01-06T02:56:59;5.40;99.90
20370;DHT22;10344;47.592;9.600;2024-01-06T02:59:27;5.40;99.90
20370;DHT22;10344;47.592;9.600;2024-01-06T03:01:52;5.40;99.90
20370;DHT22;10344;47.592;9.600;2024-01-06T03:04:18;5.40;99.90
20370;DHT22;10344;47.592;9.600;2024-01-06T03:06:43;5.40;99.90
20370;DHT22;10344;47.592;9.600;2024-01-06T03:09:11;5.40;99.90
20370;DHT22;10344;47.592;9.600;2024-01-06T03:11:37;5.40;99.90
20370;DHT22;10344;47.592;9.600;2024-01-06T03:14:05;5.40;99.90
20370;DHT22;10344;47.592;9.600;2024-01-06T03:16:30;5.40;99.90
20370;DHT22;10344;47.592;9.600;2024-01-06T03:18:56;5.50;99.90
20370;DHT22;10344;47.592;9.600;2024-01-06T03:21:21;5.40;99.90
20370;DHT22;10344;47.592;9.600;2024-01-06T03:23:50;5.40;99.90
20370;DHT22;10344;47.592;9.600;2024-01-06T03:26:19;5.40;99.90
20370;DHT22;10344;47.592;9.600;2024-01-06T03:28:45;5.40;99.90
20370;DHT22;10344;47.592;9.600;2024-01-06T03:31:10;5.40;99.90
20370;DHT22;10344;47.592;9.600;2024-01-06T03:33:38;5.30;99.90
20370;DHT22;10344;47.592;9.600;2024-01-06T03:36:06;5.30;99.90
20370;DHT22;10344;47.592;9.600;2024-01-06T03:38:33;5.40;99.90
20370;DHT22;10344;47.592;9.600;2024-01-06T03:40:58;5.40;99.90
20370;DHT22;10344;47.592;9.600;2024-01-06T03:43:24;5.50;99.90
20370;DHT22;10344;47.592;9.600;2024-01-06T03:45:50;5.50;99.90
20370;DHT22;10344;47.592;9.600;2024-01-06T03:48:18;5.50;99.90
20370;DHT22;10344;47.592;9.600;2024-01-06T03:50:46;5.40;99.90
20370;DHT22;10344;47.592;9.600;2024-01-06T03:53:11;5.60;99.90
20370;DHT22;10344;47.592;9.600;2024-01-06T03:55:37;5.50;99.90
20370;DHT22;10344;47.592;9.600;2024-01-06T03:58:02;5.40;99.90
20370;DHT22;10344;47.592;9.600;2024-01-06T04:00:28;5.40;99.90
20370;DHT22;10344;47.592;9.600;2024-01-06T04:02:54;5.30;99.90
20370;DHT22;10344;47.592;9.600;2024-01-06T04:05:19;5.30;99.90
20370;DHT22;10344;47.592;9.600;2024-01-06T04:07:45;5.20;99.90
20370;DHT22;10344;47.592;9.600;2024-01-06T04:10:10;5.20;99.90
20370;DHT22;10344;47.592;9.600;2024-01-06T04:12:36;5.20;99.90
20370;DHT22;10344;47.592;9.600;2024-01-06T04:15:04;5.10;99.90
20370;DHT22;10344;47.592;9.600;2024-01-06T04:17:32;5.10;99.90
20370;DHT22;10344;47.592;9.600;2024-01-06T04:19:58;5.10;99.90
20370;DHT22;10344;47.592;9.600;2024-01-06T04:22:24;5.10;99.90
20370;DHT22;10344;47.592;9.600;2024-01-06T04:24:49;5.10;99.90
20370;DHT22;10344;47.592;9.600;2024-01-06T04:27:15;5.20;99.90
20370;DHT22;10344;47.592;9.600;2024-01-06T04:29:41;5.10;99.90
20370;DHT22;10344;47.592;9.600;2024-01-06T04:32:06;5.10;99.90
20370;DHT22;10344;47.592;9.600;2024-01-06T04:34:34;5.10;99.90
20370;DHT22;10344;47.592;9.600;2024-01-06T04:37:00;5.10;99.90
20370;DHT22;10344;47.592;9.600;2024-01-06T04:39:25;5.10;99.90
20370;DHT22;10344;47.592;9.600;2024-01-06T04:41:51;5.10;99.90
20370;DHT22;10344;47.592;9.600;2024-01-06T04:44:20;5.10;99.90
20370;DHT22;10344;47.592;9.600;2024-01-06T04:46:48;5.10;99.90
20370;DHT22;10344;47.592;9.600;2024-01-06T04:49:14;5.00;99.90
20370;DHT22;10344;47.592;9.600;2024-01-06T04:51:39;4.90;99.90
20370;DHT22;10344;47.592;9.600;2024-01-06T04:54:05;4.90;99.90
20370;DHT22;10344;47.592;9.600;2024-01-06T04:56:34;4.90;99.90
20370;DHT22;10344;47.592;9.600;2024-01-06T04:59:02;4.90;99.90
20370;DHT22;10344;47.592;9.600;2024-01-06T05:01:28;5.00;99.90
20370;DHT22;10344;47.592;9.600;2024-01-06T05:03:55;5.00;99.90
20370;DHT22;10344;47.592;9.600;2024-01-06T05:06:20;5.00;99.90
20370;DHT22;10344;47.592;9.600;2024-01-06T05:08:46;5.00;99.90
20370;DHT22;10344;47.592;9.600;2024-01-06T05:11:12;5.00;99.90
20370;DHT22;10344;47.592;9.600;2024-01-06T05:13:37;4.90;99.90
20370;DHT22;10344;47.592;9.600;2024-01-06T05:16:03;5.00;99.90
20370;DHT22;10344;47.592;9.600;2024-01-06T05:18:32;5.00;99.90
20370;DHT22;10344;47.592;9.600;2024-01-06T05:21:00;5.00;99.90
20370;DHT22;10344;47.592;9.600;2024-01-06T05:23:26;5.00;99.90
20370;DHT22;10344;47.592;9.600;2024-01-06T05:25:52;5.00;99.90
20370;DHT22;10344;47.592;9.600;2024-01-06T05:28:20;5.00;99.90
20370;DHT22;10344;47.592;9.600;2024-01-06T05:30:50;4.90;99.90
20370;DHT22;10344;47.592;9.600;2024-01-06T05:33:16;5.00;99.90
20370;DHT22;10344;47.592;9.600;2024-01-06T05:35:44;4.90;99.90
20370;DHT22;10344;47.592;9.600;2024-01-06T05:38:10;4.90;99.90
20370;DHT22;10344;47.592;9.600;2024-01-06T05:40:38;4.90;99.90
20370;DHT22;10344;47.592;9.600;2024-01-06T05:43:04;4.90;99.90
20370;DHT22;10344;47.592;9.600;2024-01-06T05:45:29;4.90;99.90
20370;DHT22;10344;47.592;9.600;2024-01-06T05:47:57;4.80;99.90
20370;DHT22;10344;47.592;9.600;2024-01-06T05:50:23;4.90;99.90
20370;DHT22;10344;47.592;9.600;2024-01-06T05:52:51;4.90;99.90
20370;DHT22;10344;47.592;9.600;2024-01-06T05:55:20;4.90;99.90
20370;DHT22;10344;47.592;9.600;2024-01-06T05:57:48;4.90;99.90
20370;DHT22;10344;47.592;9.600;2024-01-06T06:00:14;4.80;99.90
20370;DHT22;10344;47.592;9.600;2024-01-06T06:02:43;4.80;99.90
20370;DHT22;10344;47.592;9.600;2024-01-06T06:05:11;4.90;99.90
20370;DHT22;10344;47.592;9.600;2024-01-06T06:07:42;4.90;99.90
20370;DHT22;10344;47.592;9.600;2024-01-06T06:10:09;4.80;99.90
20370;DHT22;10344;47.592;9.600;2024-01-06T06:12:35;4.80;99.90
20370;DHT22;10344;47.592;9.600;2024-01-06T06:15:04;4.80;99.90
20370;DHT22;10344;47.592;9.600;2024-01-06T06:17:36;4.70;99.90
20370;DHT22;10344;47.592;9.600;2024-01-06T06:20:01;4.70;99.90
20370;DHT22;10344;47.592;9.600;2024-01-06T06:22:30;4.70;99.90
20370;DHT22;10344;47.592;9.600;2024-01-06T06:24:57;4.70;99.90
20370;DHT22;10344;47.592;9.600;2024-01-06T06:27:23;4.60;99.90
20370;DHT22;10344;47.592;9.600;2024-01-06T06:29:49;4.60;99.90
20370;DHT22;10344;47.592;9.600;2024-01-06T06:32:17;4.60;99.90
20370;DHT22;10344;47.592;9.600;2024-01-06T06:34:43;4.60;99.90
20370;DHT22;10344;47.592;9.600;2024-01-06T06:37:09;4.50;99.90
20370;DHT22;10344;47.592;9.600;2024-01-06T06:39:36;4.50;99.90
20370;DHT22;10344;47.592;9.600;2024-01-06T06:42:07;4.50;99.90
20370;DHT22;10344;47.592;9.600;2024-01-06T06:44:33;4.50;99.90
20370;DHT22;10344;47.592;9.600;2024-01-06T06:46:58;4.50;99.90
20370;DHT22;10344;47.592;9.600;2024-01-06T06:49:24;4.40;99.90
20370;DHT22;10344;47.592;9.600;2024-01-06T06:51:49;4.40;99.90
20370;DHT22;10344;47.592;9.600;2024-01-06T06:54:15;4.40;99.90
20370;DHT22;10344;47.592;9.600;2024-01-06T06:56:44;4.40;99.90
20370;DHT22;10344;47.592;9.600;2024-01-06T06:59:10;4.40;99.90
20370;DHT22;10344;47.592;9.600;2024-01-06T07:01:36;4.40;99.90
20370;DHT22;10344;47.592;9.600;2024-01-06T07:04:02;4.40;99.90
20370;DHT22;10344;47.592;9.600;2024-01-06T07:06:28;4.50;99.90
20370;DHT22;10344;47.592;9.600;2024-01-06T07:08:55;4.50;99.90
20370;DHT22;10344;47.592;9.600;2024-01-06T07:11:23;4.40;99.90
20370;DHT22;10344;47.592;9.600;2024-01-06T07:13:50;4.40;99.90
20370;DHT22;10344;47.592;9.600;2024-01-06T07:16:17;4.40;99.90
20370;DHT22;10344;47.592;9.600;2024-01-06T07:18:46;4.40;99.90
20370;DHT22;10344;47.592;9.600;2024-01-06T07:21:14;4.30;99.90
20370;DHT22;10344;47.592;9.600;2024-01-06T07:23:40;4.40;99.90
20370;DHT22;10344;47.592;9.600;2024-01-06T07:26:06;4.40;99.90
20370;DHT22;10344;47.592;9.600;2024-01-06T07:28:34;4.40;99.90
20370;DHT22;10344;47.592;9.600;2024-01-06T07:31:02;4.40;99.90
20370;DHT22;10344;47.592;9.600;2024-01-06T07:33:31;4.30;99.90
20370;DHT22;10344;47.592;9.600;2024-01-06T07:35:56;4.40;99.90
20370;DHT22;10344;47.592;9.600;2024-01-06T07:38:24;4.40;99.90
20370;DHT22;10344;47.592;9.600;2024-01-06T07:40:52;4.50;99.90
20370;DHT22;10344;47.592;9.600;2024-01-06T07:43:20;4.40;99.90
20370;DHT22;10344;47.592;9.600;2024-01-06T07:45:45;4.40;99.90
20370;DHT22;10344;47.592;9.600;2024-01-06T07:48:13;4.40;99.90
20370;DHT22;10344;47.592;9.600;2024-01-06T07:50:40;4.40;99.90
20370;DHT22;10344;47.592;9.600;2024-01-06T07:53:06;4.40;99.90
20370;DHT22;10344;47.592;9.600;2024-01-06T07:55:31;4.50;99.90
20370;DHT22;10344;47.592;9.600;2024-01-06T07:57:57;4.50;99.90
20370;DHT22;10344;47.592;9.600;2024-01-06T08:00:23;4.50;99.90
20370;DHT22;10344;47.592;9.600;2024-01-06T08:02:48;4.50;99.90
20370;DHT22;10344;47.592;9.600;2024-01-06T08:05:14;4.50;99.90
20370;DHT22;10344;47.592;9.600;2024-01-06T08:07:40;4.60;99.90
20370;DHT22;10344;47.592;9.600;2024-01-06T08:10:08;4.60;99.90
20370;DHT22;10344;47.592;9.600;2024-01-06T08:12:36;4.60;99.90
20370;DHT22;10344;47.592;9.600;2024-01-06T08:15:05;4.60;99.90
20370;DHT22;10344;47.592;9.600;2024-01-06T08:17:31;4.60;99.90
20370;DHT22;10344;47.592;9.600;2024-01-06T08:19:59;4.60;99.90
20370;DHT22;10344;47.592;9.600;2024-01-06T08:22:27;4.60;99.90
20370;DHT22;10344;47.592;9.600;2024-01-06T08:24:54;4.60;99.90
20370;DHT22;10344;47.592;9.600;2024-01-06T08:27:22;4.60;99.90
20370;DHT22;10344;47.592;9.600;2024-01-06T08:29:49;4.60;99.90
20370;DHT22;10344;47.592;9.600;2024-01-06T08:32:15;4.60;99.90
20370;DHT22;10344;47.592;9.600;2024-01-06T08:34:42;4.70;99.90
20370;DHT22;10344;47.592;9.600;2024-01-06T08:37:07;4.70;99.90
20370;DHT22;10344;47.592;9.600;2024-01-06T08:39:33;4.70;99.90
20370;DHT22;10344;47.592;9.600;2024-01-06T08:41:59;4.70;99.90
20370;DHT22;10344;47.592;9.600;2024-01-06T08:44:24;4.70;99.90
20370;DHT22;10344;47.592;9.600;2024-01-06T08:46:52;4.70;99.90
20370;DHT22;10344;47.592;9.600;2024-01-06T08:49:18;4.70;99.90
20370;DHT22;10344;47.592;9.600;2024-01-06T08:51:46;4.70;99.90
20370;DHT22;10344;47.592;9.600;2024-01-06T08:54:11;4.70;99.90
20370;DHT22;10344;47.592;9.600;2024-01-06T08:56:37;4.70;99.90
20370;DHT22;10344;47.592;9.600;2024-01-06T08:59:03;4.70;99.90
20370;DHT22;10344;47.592;9.600;2024-01-06T09:01:30;4.70;99.90
20370;DHT22;10344;47.592;9.600;2024-01-06T09:03:57;4.70;99.90
20370;DHT22;10344;47.592;9.600;2024-01-06T09:06:23;4.70;99.90
20370;DHT22;10344;47.592;9.600;2024-01-06T09:08:49;4.70;99.90
20370;DHT22;10344;47.592;9.600;2024-01-06T09:11:14;4.70;99.90
20370;DHT22;10344;47.592;9.600;2024-01-06T09:13:40;4.70;99.90
20370;DHT22;10344;47.592;9.600;2024-01-06T09:16:06;4.80;99.90
20370;DHT22;10344;47.592;9.600;2024-01-06T09:18:31;4.80;99.90
20370;DHT22;10344;47.592;9.600;2024-01-06T09:20:57;4.90;99.90
20370;DHT22;10344;47.592;9.600;2024-01-06T09:23:23;4.90;99.90
20370;DHT22;10344;47.592;9.600;2024-01-06T09:25:49;5.00;99.90
20370;DHT22;10344;47.592;9.600;2024-01-06T09:28:32;5.00;99.90
20370;DHT22;10344;47.592;9.600;2024-01-06T09:30:57;5.10;99.90
20370;DHT22;10344;47.592;9.600;2024-01-06T09:33:23;5.10;99.90
20370;DHT22;10344;47.592;9.600;2024-01-06T09:35:51;5.10;99.90
20370;DHT22;10344;47.592;9.600;2024-01-06T09:38:17;5.20;99.90
20370;DHT22;10344;47.592;9.600;2024-01-06T09:40:44;5.10;99.90
20370;DHT22;10344;47.592;9.600;2024-01-06T09:43:15;5.20;99.90
20370;DHT22;10344;47.592;9.600;2024-01-06T09:45:41;5.20;99.90
20370;DHT22;10344;47.592;9.600;2024-01-06T09:48:13;5.30;99.90
20370;DHT22;10344;47.592;9.600;2024-01-06T09:50:41;5.30;99.90
20370;DHT22;10344;47.592;9.600;2024-01-06T09:53:10;5.40;99.90
20370;DHT22;10344;47.592;9.600;2024-01-06T09:55:38;5.40;99.90
20370;DHT22;10344;47.592;9.600;2024-01-06T09:58:04;5.50;99.90
20370;DHT22;10344;47.592;9.600;2024-01-06T10:00:31;5.50;99.90
20370;DHT22;10344;47.592;9.600;2024-01-06T10:02:57;5.60;99.90
20370;DHT22;10344;47.592;9.600;2024-01-06T10:05:23;5.60;99.90
20370;DHT22;10344;47.592;9.600;2024-01-06T10:07:49;5.60;99.90
20370;DHT22;10344;47.592;9.600;2024-01-06T10:10:15;5.50;99.90
20370;DHT22;10344;47.592;9.600;2024-01-06T10:12:42;5.50;99.90
20370;DHT22;10344;47.592;9.600;2024-01-06T10:15:09;5.60;99.90
20370;DHT22;10344;47.592;9.600;2024-01-06T10:17:44;5.50;99.90
20370;DHT22;10344;47.592;9.600;2024-01-06T10:20:11;5.50;99.90
20370;DHT22;10344;47.592;9.600;2024-01-06T10:22:38;5.60;99.90
20370;DHT22;10344;47.592;9.600;2024-01-06T10:25:07;5.70;99.90
20370;DHT22;10344;47.592;9.600;2024-01-06T10:27:40;5.70;99.90
20370;DHT22;10344;47.592;9.600;2024-01-06T10:30:07;5.80;99.90
20370;DHT22;10344;47.592;9.600;2024-01-06T10:32:33;6.00;99.90
20370;DHT22;10344;47.592;9.600;2024-01-06T10:35:04;5.90;99.90
20370;DHT22;10344;47.592;9.600;2024-01-06T10:37:33;5.90;99.90
20370;DHT22;10344;47.592;9.600;2024-01-06T10:40:10;5.90;99.90
20370;DHT22;10344;47.592;9.600;2024-01-06T10:42:37;6.00;99.90
20370;DHT22;10344;47.592;9.600;2024-01-06T10:45:08;5.90;99.90
20370;DHT22;10344;47.592;9.600;2024-01-06T10:47:39;5.90;99.90
20370;DHT22;10344;47.592;9.600;2024-01-06T10:50:06;5.90;99.90
20370;DHT22;10344;47.592;9.600;2024-01-06T10:52:34;5.90;99.90
20370;DHT22;10344;47.592;9.600;2024-01-06T10:55:01;6.00;99.90
20370;DHT22;10344;47.592;9.600;2024-01-06T10:57:31;6.00;99.90
20370;DHT22;10344;47.592;9.600;2024-01-06T10:59:58;6.00;99.90
20370;DHT22;10344;47.592;9.600;2024-01-06T11:02:25;6.00;99.90
20370;DHT22;10344;47.592;9.600;2024-01-06T11:04:54;6.00;99.90
20370;DHT22;10344;47.592;9.600;2024-01-06T11:07:25;6.10;99.90
20370;DHT22;10344;47.592;9.600;2024-01-06T11:10:10;6.00;99.90
20370;DHT22;10344;47.592;9.600;2024-01-06T11:12:37;6.10;99.90
20370;DHT22;10344;47.592;9.600;2024-01-06T11:15:03;6.10;99.90
20370;DHT22;10344;47.592;9.600;2024-01-06T11:17:52;6.00;99.90
20370;DHT22;10344;47.592;9.600;2024-01-06T11:20:21;5.90;99.90
20370;DHT22;10344;47.592;9.600;2024-01-06T11:22:48;5.90;99.90
20370;DHT22;10344;47.592;9.600;2024-01-06T11:25:17;5.90;99.90
20370;DHT22;10344;47.592;9.600;2024-01-06T11:27:45;5.90;99.90
20370;DHT22;10344;47.592;9.600;2024-01-06T11:30:22;5.90;99.90
20370;DHT22;10344;47.592;9.600;2024-01-06T11:32:52;5.80;99.90
20370;DHT22;10344;47.592;9.600;2024-01-06T11:35:19;5.90;99.90
20370;DHT22;10344;47.592;9.600;2024-01-06T11:42:57;5.90;99.90
20370;DHT22;10344;47.592;9.600;2024-01-06T11:45:25;5.90;99.90
20370;DHT22;10344;47.592;9.600;2024-01-06T11:47:54;5.90;99.90
20370;DHT22;10344;47.592;9.600;2024-01-06T11:50:21;5.90;99.90
20370;DHT22;10344;47.592;9.600;2024-01-06T11:52:47;5.90;99.90
20370;DHT22;10344;47.592;9.600;2024-01-06T11:55:17;5.90;99.90
20370;DHT22;10344;47.592;9.600;2024-01-06T11:57:43;5.90;99.90
20370;DHT22;10344;47.592;9.600;2024-01-06T12:00:15;5.90;99.90
20370;DHT22;10344;47.592;9.600;2024-01-06T12:02:41;6.00;99.90
20370;DHT22;10344;47.592;9.600;2024-01-06T12:05:12;5.90;99.90
20370;DHT22;10344;47.592;9.600;2024-01-06T12:07:41;5.90;99.90
20370;DHT22;10344;47.592;9.600;2024-01-06T12:10:08;5.90;99.90
20370;DHT22;10344;47.592;9.600;2024-01-06T12:12:33;6.00;99.90
20370;DHT22;10344;47.592;9.600;2024-01-06T12:14:59;5.90;99.90
20370;DHT22;10344;47.592;9.600;2024-01-06T12:17:29;5.80;99.90
20370;DHT22;10344;47.592;9.600;2024-01-06T12:19:55;5.80;99.90
20370;DHT22;10344;47.592;9.600;2024-01-06T12:22:21;5.80;99.90
20370;DHT22;10344;47.592;9.600;2024-01-06T12:24:50;5.90;99.90
20370;DHT22;10344;47.592;9.600;2024-01-06T12:27:17;6.00;99.90
20370;DHT22;10344;47.592;9.600;2024-01-06T12:29:49;6.10;99.90
20370;DHT22;10344;47.592;9.600;2024-01-06T12:32:15;6.10;99.90
20370;DHT22;10344;47.592;9.600;2024-01-06T12:34:40;6.10;99.90
20370;DHT22;10344;47.592;9.600;2024-01-06T12:37:06;6.00;99.90
20370;DHT22;10344;47.592;9.600;2024-01-06T12:39:33;6.00;99.90
20370;DHT22;10344;47.592;9.600;2024-01-06T12:42:00;6.00;99.90
20370;DHT22;10344;47.592;9.600;2024-01-06T12:44:26;6.10;99.90
20370;DHT22;10344;47.592;9.600;2024-01-06T12:46:52;6.10;99.90
20370;DHT22;10344;47.592;9.600;2024-01-06T12:49:18;6.10;99.90
20370;DHT22;10344;47.592;9.600;2024-01-06T12:51:46;6.10;99.90
20370;DHT22;10344;47.592;9.600;2024-01-06T12:54:14;6.10;99.90
20370;DHT22;10344;47.592;9.600;2024-01-06T12:56:42;6.00;99.90
20370;DHT22;10344;47.592;9.600;2024-01-06T12:59:08;6.00;99.90
20370;DHT22;10344;47.592;9.600;2024-01-06T13:01:33;6.00;99.90
20370;DHT22;10344;47.592;9.600;2024-01-06T13:03:59;6.00;99.90
20370;DHT22;10344;47.592;9.600;2024-01-06T13:06:29;6.00;99.90
20370;DHT22;10344;47.592;9.600;2024-01-06T13:08:56;5.90;99.90
20370;DHT22;10344;47.592;9.600;2024-01-06T13:11:24;6.00;99.90
20370;DHT22;10344;47.592;9.600;2024-01-06T13:13:52;6.00;99.90
20370;DHT22;10344;47.592;9.600;2024-01-06T13:16:17;6.00;99.90
20370;DHT22;10344;47.592;9.600;2024-01-06T13:18:43;5.90;99.90
20370;DHT22;10344;47.592;9.600;2024-01-06T13:21:11;5.90;99.90
20370;DHT22;10344;47.592;9.600;2024-01-06T13:23:37;5.90;99.90
20370;DHT22;10344;47.592;9.600;2024-01-06T13:26:02;5.90;99.90
20370;DHT22;10344;47.592;9.600;2024-01-06T13:28:28;6.00;99.90
20370;DHT22;10344;47.592;9.600;2024-01-06T13:30:54;6.00;99.90
20370;DHT22;10344;47.592;9.600;2024-01-06T13:33:19;6.00;99.90
20370;DHT22;10344;47.592;9.600;2024-01-06T13:35:45;5.90;99.90
20370;DHT22;10344;47.592;9.600;2024-01-06T13:38:14;5.90;99.90
20370;DHT22;10344;47.592;9.600;2024-01-06T13:40:41;5.90;99.90
20370;DHT22;10344;47.592;9.600;2024-01-06T13:43:07;5.90;99.90
20370;DHT22;10344;47.592;9.600;2024-01-06T13:45:35;5.90;99.90
20370;DHT22;10344;47.592;9.600;2024-01-06T13:48:03;5.90;99.90
20370;DHT22;10344;47.592;9.600;2024-01-06T13:50:29;5.90;99.90
20370;DHT22;10344;47.592;9.600;2024-01-06T13:52:55;5.80;99.90
20370;DHT22;10344;47.592;9.600;2024-01-06T13:55:20;5.80;99.90
20370;DHT22;10344;47.592;9.600;2024-01-06T13:57:46;5.80;99.90
20370;DHT22;10344;47.592;9.600;2024-01-06T14:00:12;5.70;99.90
20370;DHT22;10344;47.592;9.600;2024-01-06T14:02:41;5.70;99.90
20370;DHT22;10344;47.592;9.600;2024-01-06T14:05:07;5.60;99.90
20370;DHT22;10344;47.592;9.600;2024-01-06T14:07:34;5.60;99.90
20370;DHT22;10344;47.592;9.600;2024-01-06T14:10:00;5.70;99.90
20370;DHT22;10344;47.592;9.600;2024-01-06T14:12:25;5.70;99.90
20370;DHT22;10344;47.592;9.600;2024-01-06T14:14:51;5.70;99.90
20370;DHT22;10344;47.592;9.600;2024-01-06T14:17:17;5.60;99.90
20370;DHT22;10344;47.592;9.600;2024-01-06T14:19:42;5.60;99.90
20370;DHT22;10344;47.592;9.600;2024-01-06T14:22:10;5.60;99.90
20370;DHT22;10344;47.592;9.600;2024-01-06T14:24:38;5.60;99.90
20370;DHT22;10344;47.592;9.600;2024-01-06T14:27:06;5.60;99.90
20370;DHT22;10344;47.592;9.600;2024-01-06T14:29:32;5.60;99.90
20370;DHT22;10344;47.592;9.600;2024-01-06T14:31:58;5.60;99.90
20370;DHT22;10344;47.592;9.600;2024-01-06T14:34:23;5.60;99.90
20370;DHT22;10344;47.592;9.600;2024-01-06T14:36:52;5.50;99.90
20370;DHT22;10344;47.592;9.600;2024-01-06T14:39:18;5.60;99.90
20370;DHT22;10344;47.592;9.600;2024-01-06T14:41:52;5.50;99.90
20370;DHT22;10344;47.592;9.600;2024-01-06T14:44:17;5.50;99.90
20370;DHT22;10344;47.592;9.600;2024-01-06T14:46:46;5.50;99.90
20370;DHT22;10344;47.592;9.600;2024-01-06T14:49:11;5.40;99.90
20370;DHT22;10344;47.592;9.600;2024-01-06T14:51:37;5.40;99.90
20370;DHT22;10344;47.592;9.600;2024-01-06T14:54:03;5.40;99.90
20370;DHT22;10344;47.592;9.600;2024-01-06T14:56:29;5.40;99.90
20370;DHT22;10344;47.592;9.600;2024-01-06T14:58:56;5.40;99.90
20370;DHT22;10344;47.592;9.600;2024-01-06T15:01:21;5.40;99.90
20370;DHT22;10344;47.592;9.600;2024-01-06T15:03:47;5.40;99.90
20370;DHT22;10344;47.592;9.600;2024-01-06T15:06:15;5.40;99.90
20370;DHT22;10344;47.592;9.600;2024-01-06T15:08:42;5.40;99.90
20370;DHT22;10344;47.592;9.600;2024-01-06T15:11:08;5.40;99.90
20370;DHT22;10344;47.592;9.600;2024-01-06T15:13:34;5.40;99.90
20370;DHT22;10344;47.592;9.600;2024-01-06T15:16:02;5.40;99.90
20370;DHT22;10344;47.592;9.600;2024-01-06T15:18:28;5.40;99.90
20370;DHT22;10344;47.592;9.600;2024-01-06T15:20:54;5.40;99.90
20370;DHT22;10344;47.592;9.600;2024-01-06T15:23:19;5.30;99.90
20370;DHT22;10344;47.592;9.600;2024-01-06T15:25:45;5.30;99.90
20370;DHT22;10344;47.592;9.600;2024-01-06T15:28:12;5.30;99.90
20370;DHT22;10344;47.592;9.600;2024-01-06T15:30:42;5.30;99.90
20370;DHT22;10344;47.592;9.600;2024-01-06T15:33:07;5.30;99.90
20370;DHT22;10344;47.592;9.600;2024-01-06T15:35:35;5.20;99.90
20370;DHT22;10344;47.592;9.600;2024-01-06T15:38:01;5.20;99.90
20370;DHT22;10344;47.592;9.600;2024-01-06T15:40:26;5.20;99.90
20370;DHT22;10344;47.592;9.600;2024-01-06T15:42:54;5.10;99.90
20370;DHT22;10344;47.592;9.600;2024-01-06T15:45:20;5.10;99.90
20370;DHT22;10344;47.592;9.600;2024-01-06T15:47:48;5.10;99.90